QTR8 CYYZ-OMAA
Flight info
| Callsign | QTR8 |
|---|---|
| Flight time | N/A |
| Altitude | 31000 |
| Route | VERDO7 IPTOS Q921 AGLUK DCT CEFOU DCT NEEKO/M085F330 DCT 54N050W 55N040W 56N030W 56N020W DCT RESNO DCT NETKI/N0485F330 DCT CON DCT MORAG/N0481F350 DCT NUCHU DCT BOGNA UL612 XAMAB DCT VEULE DCT INPAX DCT RESMI DCT ODEBU DCT OGULO DCT OKASI DCT OKEKO DCT MOU DCT MADIV DCT MOKIP DCT TUFTA DCT KOGAS DCT MEDAM DCT NITAM DCT MOGBO DCT BELIX DCT SALUN N705 MMA/N0482F370 P751 DASUM Y234 FYM M872 BDB Y214 RAPMA DCT KUVSO DCT KATIT DCT DANUX DCT TANSU/N0509F330 G783 VAVIM P899 ROVOS |
| Aircraft | B77W/H-SDE1E2E3FGHIJ2J3J4J5M1RWXY/LB1D1 |
Departure
| Time | 2026-05-07 06:48 |
|---|---|
| Airport | Toronto Pearson International Airport (CYYZ) |
Arrival
| Time | N/A |
|---|---|
| Airport | Zayed International Airport (OMAA) |
| Time | Latitude | Longitude | Altitude | Speed | Heading |
|---|---|---|---|---|---|
| 2026-05-07 06:28 | 43.67610 | -79.61325 | 575 ft | 0 kts | 45° |
| 2026-05-07 06:29 | 43.67609 | -79.61325 | 575 ft | 0 kts | 45° |
| 2026-05-07 06:40 | 43.67603 | -79.61334 | 575 ft | 4 kts | 45° |
| 2026-05-07 06:40 | 43.67584 | -79.61360 | 575 ft | 4 kts | 45° |
| 2026-05-07 06:40 | 43.67568 | -79.61383 | 575 ft | 2 kts | 45° |
| 2026-05-07 06:41 | 43.67548 | -79.61404 | 575 ft | 4 kts | 19° |
| 2026-05-07 06:41 | 43.67527 | -79.61411 | 575 ft | 4 kts | 344° |
| 2026-05-07 06:41 | 43.67524 | -79.61408 | 575 ft | 4 kts | 274° |
| 2026-05-07 06:41 | 43.67517 | -79.61374 | 575 ft | 4 kts | 300° |
| 2026-05-07 06:42 | 43.67505 | -79.61342 | 572 ft | 4 kts | 291° |
| 2026-05-07 06:42 | 43.67495 | -79.61308 | 573 ft | 4 kts | 289° |
| 2026-05-07 06:42 | 43.67487 | -79.61275 | 571 ft | 4 kts | 299° |
| 2026-05-07 06:42 | 43.67474 | -79.61259 | 575 ft | 4 kts | 21° |
| 2026-05-07 06:43 | 43.67470 | -79.61261 | 571 ft | 0 kts | 28° |
| 2026-05-07 06:44 | 43.67473 | -79.61257 | 575 ft | 4 kts | 40° |
| 2026-05-07 06:44 | 43.67477 | -79.61219 | 574 ft | 4 kts | 87° |
| 2026-05-07 06:45 | 43.67479 | -79.61179 | 569 ft | 4 kts | 88° |
| 2026-05-07 06:45 | 43.67473 | -79.61138 | 568 ft | 5 kts | 116° |
| 2026-05-07 06:45 | 43.67448 | -79.61110 | 569 ft | 5 kts | 156° |
| 2026-05-07 06:45 | 43.67415 | -79.61102 | 571 ft | 5 kts | 172° |
| 2026-05-07 06:46 | 43.67381 | -79.61095 | 570 ft | 5 kts | 172° |
| 2026-05-07 06:46 | 43.67332 | -79.61106 | 573 ft | 11 kts | 207° |
| 2026-05-07 06:46 | 43.67277 | -79.61182 | 572 ft | 11 kts | 231° |
| 2026-05-07 06:46 | 43.67230 | -79.61267 | 574 ft | 11 kts | 233° |
| 2026-05-07 06:47 | 43.67183 | -79.61351 | 576 ft | 11 kts | 229° |
| 2026-05-07 06:47 | 43.67130 | -79.61429 | 575 ft | 11 kts | 235° |
| 2026-05-07 06:47 | 43.67134 | -79.61528 | 574 ft | 11 kts | 316° |
| 2026-05-07 06:47 | 43.67193 | -79.61601 | 577 ft | 11 kts | 317° |
| 2026-05-07 06:48 | 43.67381 | -79.61845 | 581 ft | 77 kts | 316° |
| 2026-05-07 06:48 | 43.67979 | -79.62626 | 577 ft | 159 kts | 316° |
| 2026-05-07 06:48 | 43.68901 | -79.63846 | 991 ft | 190 kts | 316° |
| 2026-05-07 06:48 | 43.69860 | -79.65074 | 2119 ft | 186 kts | 315° |
| 2026-05-07 06:49 | 43.70820 | -79.66207 | 2997 ft | 186 kts | 320° |
| 2026-05-07 06:49 | 43.71922 | -79.67267 | 3190 ft | 201 kts | 323° |
| 2026-05-07 06:49 | 43.73151 | -79.68385 | 3404 ft | 221 kts | 324° |
| 2026-05-07 06:49 | 43.74487 | -79.69576 | 3706 ft | 239 kts | 324° |
| 2026-05-07 06:50 | 43.75960 | -79.70774 | 4073 ft | 251 kts | 335° |
| 2026-05-07 06:50 | 43.77722 | -79.71019 | 4528 ft | 265 kts | 10° |
| 2026-05-07 06:50 | 43.79419 | -79.69934 | 5131 ft | 276 kts | 37° |
| 2026-05-07 06:50 | 43.80648 | -79.67853 | 5660 ft | 287 kts | 64° |
| 2026-05-07 06:51 | 43.81029 | -79.65135 | 6185 ft | 294 kts | 97° |
| 2026-05-07 06:51 | 43.80634 | -79.62347 | 6692 ft | 297 kts | 104° |
| 2026-05-07 06:51 | 43.80173 | -79.59542 | 7300 ft | 301 kts | 104° |
| 2026-05-07 06:51 | 43.79680 | -79.56717 | 7979 ft | 303 kts | 105° |
| 2026-05-07 06:52 | 43.79178 | -79.53869 | 8613 ft | 306 kts | 104° |
| 2026-05-07 06:52 | 43.78676 | -79.50979 | 9229 ft | 311 kts | 104° |
| 2026-05-07 06:52 | 43.78177 | -79.48054 | 9876 ft | 314 kts | 104° |
| 2026-05-07 06:52 | 43.77678 | -79.45095 | 10385 ft | 321 kts | 104° |
| 2026-05-07 06:53 | 43.77459 | -79.43798 | 10465 ft | 330 kts | 104° |
| 2026-05-07 06:54 | 43.77286 | -79.42774 | 10513 ft | 336 kts | 104° |
| 2026-05-07 06:55 | 43.76736 | -79.39517 | 10688 ft | 357 kts | 104° |
| 2026-05-07 06:55 | 43.76164 | -79.36087 | 10866 ft | 376 kts | 104° |
| 2026-05-07 06:55 | 43.75559 | -79.32472 | 11192 ft | 391 kts | 104° |
| 2026-05-07 06:55 | 43.75086 | -79.28727 | 11686 ft | 400 kts | 97° |
| 2026-05-07 06:56 | 43.74939 | -79.24841 | 12229 ft | 409 kts | 90° |
| 2026-05-07 06:56 | 43.75097 | -79.20901 | 12930 ft | 413 kts | 87° |
| 2026-05-07 06:56 | 43.75297 | -79.16964 | 13621 ft | 417 kts | 87° |
| 2026-05-07 06:56 | 43.75511 | -79.12933 | 14219 ft | 423 kts | 88° |
| 2026-05-07 06:57 | 43.75723 | -79.08840 | 14780 ft | 429 kts | 88° |
| 2026-05-07 06:57 | 43.75923 | -79.04687 | 15322 ft | 435 kts | 89° |
| 2026-05-07 06:57 | 43.76118 | -79.00470 | 15807 ft | 443 kts | 89° |
| 2026-05-07 06:57 | 43.76308 | -78.96182 | 16360 ft | 449 kts | 89° |
| 2026-05-07 06:58 | 43.76498 | -78.91896 | 16925 ft | 454 kts | 89° |
| 2026-05-07 06:58 | 43.76693 | -78.87502 | 17495 ft | 460 kts | 89° |
| 2026-05-07 06:58 | 43.76894 | -78.83058 | 18030 ft | 467 kts | 88° |
| 2026-05-07 06:58 | 43.77333 | -78.78569 | 18532 ft | 475 kts | 79° |
| 2026-05-07 06:59 | 43.78188 | -78.74116 | 19013 ft | 481 kts | 72° |
| 2026-05-07 06:59 | 43.79406 | -78.69770 | 19479 ft | 486 kts | 64° |
| 2026-05-07 06:59 | 43.80885 | -78.65528 | 19799 ft | 494 kts | 63° |
| 2026-05-07 06:59 | 43.82421 | -78.61205 | 20166 ft | 502 kts | 63° |
| 2026-05-07 07:00 | 43.83967 | -78.56845 | 20673 ft | 505 kts | 63° |
| 2026-05-07 07:00 | 43.85492 | -78.52509 | 21288 ft | 507 kts | 64° |
| 2026-05-07 07:00 | 43.87024 | -78.48111 | 21884 ft | 508 kts | 64° |
| 2026-05-07 07:00 | 43.88560 | -78.43665 | 22295 ft | 514 kts | 64° |
| 2026-05-07 07:01 | 43.90110 | -78.39152 | 22676 ft | 520 kts | 64° |
| 2026-05-07 07:01 | 43.91666 | -78.34601 | 23122 ft | 525 kts | 64° |
| 2026-05-07 07:01 | 43.93236 | -78.30001 | 23572 ft | 528 kts | 64° |
| 2026-05-07 07:01 | 43.94816 | -78.25366 | 23942 ft | 532 kts | 64° |
| 2026-05-07 07:02 | 43.96399 | -78.20715 | 24327 ft | 535 kts | 64° |
| 2026-05-07 07:02 | 43.97997 | -78.16018 | 24713 ft | 538 kts | 64° |
| 2026-05-07 07:02 | 43.99601 | -78.11291 | 25110 ft | 542 kts | 64° |
| 2026-05-07 07:02 | 44.01201 | -78.06570 | 25600 ft | 541 kts | 64° |
| 2026-05-07 07:03 | 44.02789 | -78.01881 | 26033 ft | 543 kts | 64° |
| 2026-05-07 07:03 | 44.04405 | -77.97103 | 26349 ft | 547 kts | 64° |
| 2026-05-07 07:03 | 44.06028 | -77.92295 | 26509 ft | 553 kts | 65° |
| 2026-05-07 07:03 | 44.07667 | -77.87413 | 26733 ft | 559 kts | 65° |
| 2026-05-07 07:04 | 44.09321 | -77.82490 | 27062 ft | 562 kts | 64° |
| 2026-05-07 07:04 | 44.10981 | -77.77541 | 27446 ft | 564 kts | 64° |
| 2026-05-07 07:04 | 44.12641 | -77.72584 | 27786 ft | 566 kts | 64° |
| 2026-05-07 07:04 | 44.14309 | -77.67592 | 28059 ft | 570 kts | 64° |
| 2026-05-07 07:05 | 44.15980 | -77.62574 | 28336 ft | 573 kts | 64° |
| 2026-05-07 07:05 | 44.17660 | -77.57533 | 28585 ft | 576 kts | 64° |
| 2026-05-07 07:05 | 44.19442 | -77.52567 | 28711 ft | 581 kts | 59° |
| 2026-05-07 07:05 | 44.21528 | -77.47722 | 28950 ft | 583 kts | 54° |
| 2026-05-07 07:06 | 44.23916 | -77.43178 | 29289 ft | 580 kts | 47° |
| 2026-05-07 07:06 | 44.26465 | -77.38818 | 29693 ft | 579 kts | 47° |
| 2026-05-07 07:06 | 44.29020 | -77.34481 | 30089 ft | 579 kts | 47° |
| 2026-05-07 07:06 | 44.31555 | -77.30153 | 30786 ft | 569 kts | 47° |
| 2026-05-07 07:07 | 44.34026 | -77.25898 | 30954 ft | 572 kts | 48° |
| 2026-05-07 07:07 | 44.36561 | -77.21494 | 30935 ft | 575 kts | 48° |
| 2026-05-07 07:07 | 44.41519 | -77.12788 | 30917 ft | 576 kts | 48° |
| 2026-05-07 07:08 | 44.46520 | -77.03961 | 30961 ft | 580 kts | 49° |
| 2026-05-07 07:08 | 44.51548 | -76.95068 | 30923 ft | 580 kts | 49° |
| 2026-05-07 07:09 | 44.56547 | -76.86208 | 30913 ft | 578 kts | 49° |
| 2026-05-07 07:09 | 44.61483 | -76.77436 | 30939 ft | 575 kts | 49° |
| 2026-05-07 07:10 | 44.66436 | -76.68607 | 30905 ft | 572 kts | 49° |
| 2026-05-07 07:10 | 44.70518 | -76.61308 | 30868 ft | 570 kts | 49° |
| 2026-05-07 07:11 | 44.75404 | -76.52546 | 30879 ft | 569 kts | 49° |
| 2026-05-07 07:11 | 44.80283 | -76.43771 | 30905 ft | 570 kts | 50° |
| 2026-05-07 07:12 | 44.85176 | -76.34945 | 29805 ft | 570 kts | 51° |
| 2026-05-07 07:12 | 44.87562 | -76.30633 | 30016 ft | 551 kts | 51° |
| 2026-05-07 07:12 | 44.89805 | -76.26320 | 31129 ft | 544 kts | 55° |
| 2026-05-07 07:13 | 44.91759 | -76.21694 | 30987 ft | 553 kts | 62° |
| 2026-05-07 07:13 | 44.93449 | -76.16865 | 30983 ft | 559 kts | 67° |
| 2026-05-07 07:13 | 44.94856 | -76.11721 | 30881 ft | 564 kts | 72° |
| 2026-05-07 07:13 | 44.96117 | -76.06455 | 30888 ft | 568 kts | 73° |
| 2026-05-07 07:14 | 44.98610 | -75.95817 | 30876 ft | 570 kts | 73° |
| 2026-05-07 07:14 | 45.01140 | -75.85200 | 30869 ft | 570 kts | 72° |
| 2026-05-07 07:15 | 45.03697 | -75.74590 | 30858 ft | 569 kts | 72° |
| 2026-05-07 07:15 | 45.06244 | -75.64001 | 30880 ft | 567 kts | 72° |
| 2026-05-07 07:16 | 45.08757 | -75.53497 | 30850 ft | 566 kts | 73° |
| 2026-05-07 07:16 | 45.11265 | -75.42938 | 30855 ft | 565 kts | 73° |
| 2026-05-07 07:17 | 45.13755 | -75.32398 | 30859 ft | 564 kts | 73° |
| 2026-05-07 07:17 | 45.16234 | -75.21865 | 30808 ft | 563 kts | 73° |
| 2026-05-07 07:18 | 45.18702 | -75.11325 | 30842 ft | 562 kts | 73° |
| 2026-05-07 07:18 | 45.21159 | -75.00793 | 30844 ft | 562 kts | 73° |
| 2026-05-07 07:19 | 45.23709 | -74.90324 | 30820 ft | 562 kts | 67° |
| 2026-05-07 07:19 | 45.27567 | -74.80713 | 30838 ft | 560 kts | 53° |
| 2026-05-07 07:20 | 45.32608 | -74.72444 | 30848 ft | 554 kts | 43° |
| 2026-05-07 07:20 | 45.37991 | -74.64574 | 30829 ft | 554 kts | 43° |
| 2026-05-07 07:21 | 45.43337 | -74.56648 | 30827 ft | 553 kts | 44° |
| 2026-05-07 07:21 | 45.48621 | -74.48680 | 30824 ft | 553 kts | 44° |
| 2026-05-07 07:22 | 45.53864 | -74.40720 | 30833 ft | 553 kts | 45° |
| 2026-05-07 07:22 | 45.59124 | -74.32715 | 30827 ft | 552 kts | 45° |
| 2026-05-07 07:23 | 45.64350 | -74.24745 | 30810 ft | 551 kts | 45° |
| 2026-05-07 07:23 | 45.69583 | -74.16737 | 30812 ft | 550 kts | 45° |
| 2026-05-07 07:24 | 45.74816 | -74.08726 | 30789 ft | 550 kts | 45° |
| 2026-05-07 07:24 | 45.80029 | -74.00702 | 30803 ft | 549 kts | 45° |
| 2026-05-07 07:25 | 45.87818 | -73.88680 | 30817 ft | 548 kts | 45° |
| 2026-05-07 07:26 | 45.92975 | -73.80688 | 30804 ft | 547 kts | 45° |
| 2026-05-07 07:26 | 45.98146 | -73.72652 | 30798 ft | 546 kts | 45° |
| 2026-05-07 07:27 | 46.03294 | -73.64630 | 30817 ft | 545 kts | 46° |
| 2026-05-07 07:27 | 46.08401 | -73.56647 | 30803 ft | 545 kts | 46° |
| 2026-05-07 07:28 | 46.13530 | -73.48601 | 30803 ft | 544 kts | 46° |
| 2026-05-07 07:28 | 46.18648 | -73.40515 | 30808 ft | 544 kts | 49° |
| 2026-05-07 07:29 | 46.23046 | -73.31721 | 30790 ft | 544 kts | 61° |
| 2026-05-07 07:29 | 46.26626 | -73.22110 | 30790 ft | 543 kts | 63° |
| 2026-05-07 07:30 | 46.30178 | -73.12458 | 30792 ft | 543 kts | 63° |
| 2026-05-07 07:30 | 46.33764 | -73.02824 | 30809 ft | 544 kts | 63° |
| 2026-05-07 07:31 | 46.37364 | -72.93202 | 30785 ft | 543 kts | 62° |
| 2026-05-07 07:31 | 46.40957 | -72.83571 | 30792 ft | 541 kts | 62° |
| 2026-05-07 07:32 | 46.44520 | -72.73979 | 30783 ft | 539 kts | 63° |
| 2026-05-07 07:32 | 46.48055 | -72.64413 | 30797 ft | 537 kts | 63° |
| 2026-05-07 07:33 | 46.51550 | -72.54928 | 30792 ft | 535 kts | 63° |
| 2026-05-07 07:33 | 46.55055 | -72.45380 | 30798 ft | 535 kts | 63° |
| 2026-05-07 07:34 | 46.58550 | -72.35828 | 30741 ft | 535 kts | 63° |
| 2026-05-07 07:34 | 46.62031 | -72.26277 | 30788 ft | 534 kts | 63° |
| 2026-05-07 07:35 | 46.65480 | -72.16789 | 30801 ft | 533 kts | 64° |
| 2026-05-07 07:35 | 46.68942 | -72.07224 | 30798 ft | 532 kts | 64° |
| 2026-05-07 07:36 | 46.72389 | -71.97667 | 30797 ft | 532 kts | 64° |
| 2026-05-07 07:36 | 46.75826 | -71.88105 | 30796 ft | 532 kts | 64° |
| 2026-05-07 07:37 | 46.79255 | -71.78529 | 30786 ft | 531 kts | 64° |
| 2026-05-07 07:37 | 46.82643 | -71.69036 | 30801 ft | 529 kts | 65° |
| 2026-05-07 07:38 | 46.86040 | -71.59483 | 30802 ft | 529 kts | 65° |
| 2026-05-07 07:38 | 46.89423 | -71.49931 | 30791 ft | 528 kts | 65° |
| 2026-05-07 07:39 | 46.92794 | -71.40380 | 30795 ft | 528 kts | 65° |
| 2026-05-07 07:39 | 46.96156 | -71.30825 | 30801 ft | 528 kts | 65° |
| 2026-05-07 07:40 | 46.99490 | -71.21313 | 30776 ft | 527 kts | 65° |
| 2026-05-07 07:40 | 47.02824 | -71.11760 | 30782 ft | 526 kts | 65° |
| 2026-05-07 07:41 | 47.06145 | -71.02209 | 30794 ft | 525 kts | 65° |
| 2026-05-07 07:41 | 47.09461 | -70.92659 | 30786 ft | 525 kts | 65° |
| 2026-05-07 07:42 | 47.12760 | -70.83098 | 30778 ft | 524 kts | 66° |
| 2026-05-07 07:42 | 47.16030 | -70.73587 | 30775 ft | 524 kts | 66° |
| 2026-05-07 07:43 | 47.19320 | -70.63994 | 30739 ft | 523 kts | 65° |
| 2026-05-07 07:43 | 47.22572 | -70.54474 | 30759 ft | 523 kts | 66° |
| 2026-05-07 07:44 | 47.25837 | -70.44877 | 30759 ft | 524 kts | 66° |
| 2026-05-07 07:44 | 47.29097 | -70.35267 | 30746 ft | 525 kts | 66° |
| 2026-05-07 07:45 | 47.32347 | -70.25653 | 30747 ft | 524 kts | 66° |
| 2026-05-07 07:45 | 47.35600 | -70.16013 | 30740 ft | 525 kts | 66° |
| 2026-05-07 07:46 | 47.38836 | -70.06346 | 30712 ft | 526 kts | 66° |
| 2026-05-07 07:46 | 47.42044 | -69.96728 | 30735 ft | 526 kts | 67° |
| 2026-05-07 07:47 | 47.45278 | -69.87023 | 30738 ft | 526 kts | 66° |
| 2026-05-07 07:47 | 47.48589 | -69.77401 | 30745 ft | 524 kts | 67° |
| 2026-05-07 07:48 | 47.51726 | -69.67659 | 30732 ft | 525 kts | 68° |
| 2026-05-07 07:48 | 47.54889 | -69.57895 | 30744 ft | 525 kts | 67° |
| 2026-05-07 07:49 | 47.58065 | -69.48213 | 30711 ft | 525 kts | 67° |
| 2026-05-07 07:49 | 47.61259 | -69.38457 | 30735 ft | 525 kts | 68° |
| 2026-05-07 07:50 | 47.64430 | -69.28716 | 30747 ft | 524 kts | 68° |
| 2026-05-07 07:50 | 47.67591 | -69.18955 | 30741 ft | 525 kts | 68° |
| 2026-05-07 07:51 | 47.70746 | -69.09190 | 30736 ft | 524 kts | 68° |
| 2026-05-07 07:51 | 47.73959 | -68.99460 | 30730 ft | 526 kts | 64° |
| 2026-05-07 07:52 | 47.77931 | -68.90308 | 30751 ft | 527 kts | 58° |
| 2026-05-07 07:52 | 47.82037 | -68.81340 | 30750 ft | 527 kts | 59° |
| 2026-05-07 07:53 | 47.86143 | -68.72274 | 30733 ft | 528 kts | 59° |
| 2026-05-07 07:53 | 47.90209 | -68.63159 | 30745 ft | 528 kts | 59° |
| 2026-05-07 07:54 | 47.94264 | -68.54009 | 30733 ft | 529 kts | 59° |
| 2026-05-07 07:54 | 47.98297 | -68.44886 | 30738 ft | 531 kts | 59° |
| 2026-05-07 07:55 | 48.02359 | -68.35684 | 30733 ft | 530 kts | 59° |
| 2026-05-07 07:55 | 48.06417 | -68.26455 | 30713 ft | 531 kts | 60° |
| 2026-05-07 07:56 | 48.10462 | -68.17221 | 30694 ft | 531 kts | 60° |
| 2026-05-07 07:56 | 48.14498 | -68.07967 | 30720 ft | 530 kts | 60° |
| 2026-05-07 07:57 | 48.18527 | -67.98793 | 30730 ft | 530 kts | 60° |
| 2026-05-07 07:57 | 48.22556 | -67.89528 | 30719 ft | 531 kts | 61° |
| 2026-05-07 07:58 | 48.26560 | -67.80220 | 30728 ft | 531 kts | 62° |
| 2026-05-07 07:58 | 48.30557 | -67.70887 | 30728 ft | 529 kts | 62° |
| 2026-05-07 07:59 | 48.33848 | -67.63142 | 30718 ft | 528 kts | 63° |
| 2026-05-07 07:59 | 48.38450 | -67.52338 | 30721 ft | 527 kts | 62° |
| 2026-05-07 08:00 | 48.41765 | -67.44649 | 30719 ft | 527 kts | 62° |
| 2026-05-07 08:00 | 48.45731 | -67.35374 | 30730 ft | 526 kts | 63° |
| 2026-05-07 08:01 | 48.49672 | -67.26048 | 30716 ft | 527 kts | 63° |
| 2026-05-07 08:01 | 48.53607 | -67.16710 | 30717 ft | 527 kts | 63° |
| 2026-05-07 08:02 | 48.57535 | -67.07368 | 30711 ft | 528 kts | 63° |
| 2026-05-07 08:02 | 48.61444 | -66.98047 | 30711 ft | 529 kts | 63° |
| 2026-05-07 08:03 | 48.65379 | -66.88626 | 30716 ft | 530 kts | 63° |
| 2026-05-07 08:03 | 48.69317 | -66.79165 | 30708 ft | 532 kts | 63° |
| 2026-05-07 08:04 | 48.73256 | -66.69673 | 30686 ft | 531 kts | 64° |
| 2026-05-07 08:04 | 48.77184 | -66.60219 | 30719 ft | 528 kts | 64° |
| 2026-05-07 08:05 | 48.81077 | -66.50770 | 30700 ft | 528 kts | 64° |
| 2026-05-07 08:05 | 48.84937 | -66.41321 | 30689 ft | 526 kts | 64° |